PASY METAR and TAF weather

Enter ICAO airport designator
Station Type Date Time Source
PASY METAR 2019/04/25 11:55 UTC NOAA

PASY 251155Z 14012KT 7SM BKN028 03/M02 A3026 RMK AO2A SLP250 T00251022 10031 20019 55002 RVRNO FZRANO $


Station Type Date Time Source
PASY Decoded METAR 2019/04/25 11:55 UTC NOAA

SHEMYA EARECKSON AS, AK, United States (PASY) 52-43N 174-07E
Apr 25, 2019 - 07:55 AM EDT / 2019.04.25 1155 UTC
Wind: from the SE (140 degrees) at 14 MPH (12 KT):0
Visibility: 7 mile(s):0
Sky conditions: mostly cloudy
Temperature: 36.5 F (2.5 C)
Dew Point: 28.0 F (-2.2 C)
Relative Humidity: 71%
Pressure (altimeter): 30.26 in. Hg (1024 hPa)
Pressure tendency: 0.01 inches (0.2 hPa) lower than three hours ago
ob: PASY 251155Z 14012KT 7SM BKN028 03/M02 A3026 RMK AO2A SLP250 T00251022 10031 20019 55002 RVRNO FZRANO
cycle: 12

Station Type Date Time Source
PASY TAF 2019/04/25 06:20 UTC NOAA

TAF PASY 250600Z 2506/2612 11015KT 9999 OVC040 620401 QNH3019INS
BECMG 2518/2519 13020KT 9999 BKN015 OVC030 620302 QNH3015INS
BECMG 2601/2602 17025G30KT 9999 OVC025 620252 QNH3003INS TX04/2522Z TN01/2514Z

Example: see airport list